MDT,Max TemperatureF,Mean TemperatureF,Min TemperatureF,Max Dew PointF,MeanDew PointF,Min DewpointF,Max Humidity, Mean Humidity, Min Humidity, Max Sea Level PressureIn, Mean Sea Level PressureIn, Min Sea Level PressureIn, Max VisibilityMiles, Mean VisibilityMiles, Min VisibilityMiles, Max Wind SpeedMPH, Mean Wind SpeedMPH, Max Gust SpeedMPH,PrecipitationIn, CloudCover, Events, WindDirDegrees
2014-4-1,53,38,23,23,20,16,75,52,28,30.12,30.00,29.86,10,10,10,28,13,34,0.00,1,,126
2014-4-2,48,40,31,30,26,20,82,66,49,29.90,29.84,29.76,10,10,8,16,10,20,0.00,5,,97
2014-4-3,45,37,28,33,29,22,89,67,45,30.14,29.86,29.78,10,6,0,31,17,37,0.04,7,Fog-Snow,3
2014-4-4,59,41,23,29,24,19,81,53,24,30.19,30.09,30.00,10,10,10,20,9,23,0.00,0,,246
2014-4-5,66,47,28,35,27,21,85,52,19,29.99,29.88,29.79,10,10,10,21,8,29,0.00,2,,171
2014-4-6,66,49,32,35,30,24,89,56,22,29.91,29.83,29.74,10,10,10,25,9,31,T,2,,327
2014-4-7,57,44,30,34,28,21,82,57,32,30.16,30.04,29.91,10,10,10,40,17,49,0.03,2,Rain,334
2014-4-8,70,50,30,32,27,20,69,46,22,30.18,30.10,30.00,10,10,10,20,10,24,0.00,0,,316
2014-4-9,83,62,40,31,27,22,64,38,11,29.98,29.81,29.66,10,10,10,31,13,38,0.00,0,,268
2014-4-10,67,55,42,35,32,29,67,47,26,30.04,29.94,29.75,10,10,9,22,9,28,0.00,1,Thunderstorm,32
2014-4-11,80,56,32,36,33,29,82,51,19,30.04,29.88,29.67,10,10,7,21,9,28,0.00,0,,172
2014-4-12,78,62,46,36,32,29,58,38,18,29.66,29.60,29.55,10,10,10,25,14,31,0.00,0,,29
2014-4-13,51,39,27,33,31,30,92,68,44,29.87,29.79,29.62,10,5,0,39,24,48,0.06,7,Fog-Snow,17
2014-4-14,44,34,23,23,20,16,81,59,36,30.38,30.29,30.21,10,10,10,25,14,32,0.00,3,,314
2014-4-15,67,46,25,29,23,17,75,45,15,30.23,29.90,29.60,10,10,10,22,12,28,0.00,0,,221
2014-4-16,56,44,32,35,32,28,82,63,43,30.20,29.86,29.56,10,10,7,38,19,48,T,2,,346
2014-4-17,57,44,30,37,31,26,85,64,43,30.32,30.21,30.12,10,8,2,23,14,35,0.00,5,,132
2014-4-18,78,58,37,43,38,33,86,54,22,30.13,29.96,29.82,10,10,10,28,18,36,0.00,0,,173
2014-4-19,70,57,44,45,42,40,89,61,33,30.00,29.93,29.80,10,10,9,24,10,30,0.00,0,,57
2014-4-20,77,59,40,49,44,37,86,59,31,30.01,29.96,29.88,10,10,8,18,5,21,T,1,,351
2014-4-21,73,58,43,41,27,19,64,39,14,30.20,30.13,29.99,10,10,10,24,10,29,0.00,0,,37
2014-4-22,81,61,40,46,35,27,57,40,23,30.14,29.87,29.60,10,10,10,33,21,43,0.00,0,,161
2014-4-23,80,66,51,46,36,22,62,39,16,29.78,29.56,29.46,10,9,3,41,19,52,0.00,2,,328
2014-4-24,70,57,43,36,22,9,65,38,10,29.93,29.85,29.74,10,9,0,25,12,31,0.00,1,,304
2014-4-25,78,59,40,32,25,20,51,31,11,29.85,29.76,29.60,10,10,10,22,11,27,0.00,0,,196
2014-4-26,86,64,42,41,30,16,76,42,7,29.57,29.35,29.14,10,10,10,24,10,31,0.00,0,,148
2014-4-27,70,54,37,46,35,15,92,53,14,29.45,29.24,29.06,10,8,2,44,19,54,0.39,5,Rain-Thunderstorm,333
2014-4-28,48,43,38,38,35,33,85,73,60,29.82,29.59,29.42,10,10,9,43,30,57,0.11,8,Rain,327
2014-4-29,46,40,34,34,31,27,85,69,53,30.23,29.99,29.81,10,10,8,48,30,58,0.09,8,Rain,344
2014-4-30,57,45,33,28,24,18,82,53,24,30.25,30.20,30.13,10,10,10,40,21,47,0.00,5,,333